Pago Pago, Pago Pago International Airport (NSTU)

NamePago Pago International Airport
CityPago Pago
CountryAmerican Samoa
ICAONSTU
IATAPPG
Altitude10 m
CoordinatesGoogle Map
Live Air TrafficLiveATC.net
METARNSTU 150750Z 10015KT 10SM SCT018 28/24 A2997 RMK SLP149 T02760244
2019-09-15 07:50:00 Wind: East (100°) 7.72 m/s - Visibility: 16093.4 m - Temperature: 28 °C - Dew point: 24 °C - Humidity: 78.9% - Pressure: 1014.9 hPa
Statistics

The table below shows the detailed information of all flights to/from Pago Pago, Pago Pago International Airport (NSTU).